Time;durP1;ratioP1;P1;durP2;ratioP2;P2;SDS_P1;SDS_P2;PMS_P1;PMS_P2;Temp;Humidity;BMP_temperature;BMP_pressure;BME280_temperature;BME280_humidity;BME280_pressure;Samples;Min_cycle;Max_cycle;Signal;HPM_P1;HPM_P2
2022/10/25 00:01:25;;;;;;;11.40;4.55;;;;;;;;;;5079935;28;20046;-61
2022/10/25 00:03:51;;;;;;;11.20;4.78;;;;;;;;;;5076318;28;20517;-61
2022/10/25 00:06:17;;;;;;;11.40;4.43;;;;;;;;;;5078434;28;20198;-61
2022/10/25 00:08:44;;;;;;;8.50;3.85;;;;;;;;;;5081373;28;20048;-61
2022/10/25 00:11:15;;;;;;;8.20;5.07;;;;;;;;;;5078132;28;20060;-62
2022/10/25 00:13:41;;;;;;;12.68;4.70;;;;;;;;;;5089125;28;20500;-61
2022/10/25 00:16:14;;;;;;;12.48;4.97;;;;;;;;;;5074315;27;20059;-60
2022/10/25 00:18:40;;;;;;;12.45;6.00;;;;;;;;;;5078846;28;20060;-61
2022/10/25 00:21:07;;;;;;;9.93;6.18;;;;;;;;;;5080284;28;20059;-61
2022/10/25 00:23:33;;;;;;;12.82;5.88;;;;;;;;;;5078233;28;20530;-61
2022/10/25 00:26:00;;;;;;;11.32;5.28;;;;;;;;;;5078517;28;20067;-61
2022/10/25 00:28:26;;;;;;;11.30;6.25;;;;;;;;;;5079883;28;20059;-62
2022/10/25 00:31:03;;;;;;;11.82;6.10;;;;;;;;;;5075584;28;20053;-60
2022/10/25 00:33:30;;;;;;;15.68;6.15;;;;;;;;;;5070443;28;20048;-60
2022/10/25 00:36:07;;;;;;;13.55;4.72;;;;;;;;;;5079500;28;20048;-61
2022/10/25 00:38:33;;;;;;;18.45;5.53;;;;;;;;;;5071511;28;20056;-61
2022/10/25 00:41:00;;;;;;;15.60;5.45;;;;;;;;;;5072023;28;20045;-62
2022/10/25 00:43:39;;;;;;;11.10;5.57;;;;;;;;;;5079543;28;20052;-62
2022/10/25 00:46:12;;;;;;;12.13;5.60;;;;;;;;;;5077409;28;20114;-61
2022/10/25 00:48:39;;;;;;;9.05;5.18;;;;;;;;;;5077516;28;20068;-62
2022/10/25 00:51:05;;;;;;;12.07;5.38;;;;;;;;;;5074069;28;20057;-60
2022/10/25 00:53:33;;;;;;;11.23;5.35;;;;;;;;;;5067933;28;20061;-60
2022/10/25 00:56:03;;;;;;;12.63;5.43;;;;;;;;;;5079660;28;20528;-60
2022/10/25 00:58:32;;;;;;;15.50;5.65;;;;;;;;;;5085508;28;20549;-61
2022/10/25 01:00:59;;;;;;;14.15;5.53;;;;;;;;;;5081608;28;20053;-62
2022/10/25 01:03:25;;;;;;;10.07;5.28;;;;;;;;;;5076272;28;20045;-61
2022/10/25 01:05:52;;;;;;;10.65;5.35;;;;;;;;;;5083334;28;20044;-61
2022/10/25 01:08:20;;;;;;;13.27;5.40;;;;;;;;;;5083646;28;20171;-62
2022/10/25 01:10:46;;;;;;;12.88;5.45;;;;;;;;;;5086288;28;20499;-62
2022/10/25 01:13:13;;;;;;;10.13;5.72;;;;;;;;;;5088409;28;20059;-62
2022/10/25 01:15:59;;;;;;;9.88;5.63;;;;;;;;;;5087639;27;20182;-61
2022/10/25 01:18:34;;;;;;;10.57;5.43;;;;;;;;;;5081452;28;20059;-61
2022/10/25 01:21:03;;;;;;;9.88;5.55;;;;;;;;;;5082979;28;20506;-62
2022/10/25 01:23:43;;;;;;;9.52;5.28;;;;;;;;;;5081646;28;20434;-61
2022/10/25 01:26:09;;;;;;;14.90;6.28;;;;;;;;;;5077332;28;20060;-61
2022/10/25 01:28:54;;;;;;;13.75;5.03;;;;;;;;;;5080927;28;20048;-62
2022/10/25 01:31:20;;;;;;;16.35;5.78;;;;;;;;;;5077253;28;20040;-61
2022/10/25 01:33:47;;;;;;;10.70;4.82;;;;;;;;;;5083708;28;20599;-61
2022/10/25 01:36:19;;;;;;;13.95;5.47;;;;;;;;;;5080559;27;20963;-61
2022/10/25 01:39:04;;;;;;;9.95;5.50;;;;;;;;;;5078484;28;20048;-61
2022/10/25 01:41:34;;;;;;;11.82;5.30;;;;;;;;;;5075194;28;20052;-61
2022/10/25 01:44:03;;;;;;;15.68;5.45;;;;;;;;;;5083445;28;20049;-61
2022/10/25 01:46:42;;;;;;;10.70;4.57;;;;;;;;;;5081040;28;20099;-61
2022/10/25 01:49:13;;;;;;;11.82;5.35;;;;;;;;;;5083142;28;20052;-62
2022/10/25 01:51:39;;;;;;;11.30;4.50;;;;;;;;;;5079581;28;20052;-62
2022/10/25 01:54:16;;;;;;;11.38;4.75;;;;;;;;;;5085273;28;20118;-61
2022/10/25 01:57:09;;;;;;;8.98;4.60;;;;;;;;;;5077575;28;20044;-61
2022/10/25 01:59:44;;;;;;;15.02;4.32;;;;;;;;;;5041892;28;20052;-62
2022/10/25 02:02:22;;;;;;;17.38;4.78;;;;;;;;;;5082091;28;20056;-62
2022/10/25 02:04:49;;;;;;;10.85;4.30;;;;;;;;;;5083118;28;20147;-62
2022/10/25 02:07:28;;;;;;;13.75;4.65;;;;;;;;;;5073634;28;20057;-61
2022/10/25 02:09:59;;;;;;;11.75;4.68;;;;;;;;;;5081437;28;20053;-61
2022/10/25 02:12:30;;;;;;;12.65;5.25;;;;;;;;;;5086099;28;20053;-61
2022/10/25 02:15:03;;;;;;;14.40;4.53;;;;;;;;;;5103772;27;20557;-61
2022/10/25 02:17:31;;;;;;;11.80;3.88;;;;;;;;;;5080530;27;20052;-61
2022/10/25 02:19:58;;;;;;;10.77;4.85;;;;;;;;;;5083397;28;20063;-62
2022/10/25 02:22:27;;;;;;;11.88;4.40;;;;;;;;;;5077100;28;20048;-61
2022/10/25 02:24:55;;;;;;;16.23;4.50;;;;;;;;;;5081480;28;20102;-61
2022/10/25 02:27:22;;;;;;;17.23;4.88;;;;;;;;;;5081380;28;20057;-62
2022/10/25 02:29:49;;;;;;;12.32;4.60;;;;;;;;;;5082366;28;20103;-60
2022/10/25 02:32:15;;;;;;;17.98;4.78;;;;;;;;;;5079150;28;20060;-61
2022/10/25 02:34:42;;;;;;;15.30;4.25;;;;;;;;;;5078664;28;20539;-61
2022/10/25 02:37:08;;;;;;;12.65;4.88;;;;;;;;;;5082255;28;20107;-61
2022/10/25 02:39:34;;;;;;;8.25;4.25;;;;;;;;;;5081038;28;20052;-61
2022/10/25 02:42:01;;;;;;;16.83;4.40;;;;;;;;;;5080641;28;20052;-61
2022/10/25 02:44:27;;;;;;;12.68;4.45;;;;;;;;;;5079970;28;20095;-62
2022/10/25 02:46:54;;;;;;;11.02;3.85;;;;;;;;;;5078460;28;20045;-61
2022/10/25 02:49:20;;;;;;;24.00;7.00;;;;;;;;;;5079973;28;20508;-62
2022/10/25 02:51:46;;;;;;;12.73;4.22;;;;;;;;;;5076169;28;20174;-61
2022/10/25 02:54:13;;;;;;;14.35;4.45;;;;;;;;;;5080751;28;20049;-61
2022/10/25 02:56:39;;;;;;;15.77;4.55;;;;;;;;;;5074195;28;20049;-61
2022/10/25 02:59:05;;;;;;;12.25;4.38;;;;;;;;;;5081547;28;20368;-61
2022/10/25 03:01:31;;;;;;;14.50;4.25;;;;;;;;;;5080063;28;20045;-61
2022/10/25 03:03:58;;;;;;;12.82;4.45;;;;;;;;;;5081020;28;20057;-62
2022/10/25 03:06:24;;;;;;;18.48;4.75;;;;;;;;;;5081449;28;20056;-62
2022/10/25 03:08:50;;;;;;;14.50;4.25;;;;;;;;;;5081365;28;20395;-62
2022/10/25 03:11:17;;;;;;;13.05;4.72;;;;;;;;;;5079244;28;20504;-62
2022/10/25 03:13:43;;;;;;;14.98;4.63;;;;;;;;;;5087195;28;20045;-62
2022/10/25 03:16:10;;;;;;;11.18;4.80;;;;;;;;;;5076317;28;20083;-61
2022/10/25 03:18:36;;;;;;;14.88;4.57;;;;;;;;;;5081866;28;20044;-61
2022/10/25 03:21:03;;;;;;;14.25;4.53;;;;;;;;;;5079868;28;20053;-61
2022/10/25 03:23:29;;;;;;;14.82;5.90;;;;;;;;;;5081741;28;20056;-60
2022/10/25 03:25:57;;;;;;;19.48;6.20;;;;;;;;;;5078753;28;20060;-61
2022/10/25 03:28:24;;;;;;;11.52;4.25;;;;;;;;;;5075365;28;20056;-61
2022/10/25 03:30:50;;;;;;;17.80;4.50;;;;;;;;;;5066241;28;20056;-61
2022/10/25 03:33:17;;;;;;;10.93;3.63;;;;;;;;;;5079762;28;20057;-62
2022/10/25 03:35:43;;;;;;;15.80;4.03;;;;;;;;;;5075381;28;20605;-61
2022/10/25 03:38:10;;;;;;;18.83;4.22;;;;;;;;;;5080813;28;20188;-61
2022/10/25 03:40:36;;;;;;;15.57;4.68;;;;;;;;;;5080242;28;20044;-62
2022/10/25 03:43:03;;;;;;;13.77;4.35;;;;;;;;;;5080764;28;20063;-62
2022/10/25 03:45:29;;;;;;;21.90;4.65;;;;;;;;;;5078538;28;20052;-62
2022/10/25 03:47:55;;;;;;;17.02;4.72;;;;;;;;;;5080192;28;20057;-62
2022/10/25 03:50:22;;;;;;;17.35;4.65;;;;;;;;;;5078764;28;20052;-61
2022/10/25 03:52:49;;;;;;;14.90;4.72;;;;;;;;;;5080925;28;21147;-61
2022/10/25 03:55:15;;;;;;;12.70;5.10;;;;;;;;;;5080954;28;20072;-62
2022/10/25 03:57:42;;;;;;;17.00;5.05;;;;;;;;;;5080005;28;20056;-62
2022/10/25 04:00:08;;;;;;;20.88;6.38;;;;;;;;;;5080182;28;20110;-62
2022/10/25 04:02:35;;;;;;;15.75;4.93;;;;;;;;;;5096279;28;20422;-63
2022/10/25 04:05:01;;;;;;;12.98;4.82;;;;;;;;;;5073688;28;20057;-63
2022/10/25 04:07:27;;;;;;;20.63;5.20;;;;;;;;;;5074494;28;20045;-64
2022/10/25 04:09:54;;;;;;;18.63;5.47;;;;;;;;;;5080732;28;20143;-63
2022/10/25 04:12:20;;;;;;;16.20;5.88;;;;;;;;;;5077366;28;20045;-63
2022/10/25 04:14:46;;;;;;;11.93;5.55;;;;;;;;;;5078205;28;20519;-62
2022/10/25 04:17:13;;;;;;;16.90;5.55;;;;;;;;;;5079921;28;20049;-62
2022/10/25 04:19:39;;;;;;;15.73;5.53;;;;;;;;;;5075003;28;20547;-63
2022/10/25 04:22:05;;;;;;;14.52;5.07;;;;;;;;;;5076357;28;20045;-63
2022/10/25 04:24:32;;;;;;;13.00;5.40;;;;;;;;;;5078688;28;20092;-62
2022/10/25 04:26:58;;;;;;;16.90;5.68;;;;;;;;;;5078506;28;20522;-63
2022/10/25 04:29:24;;;;;;;17.58;7.03;;;;;;;;;;5079148;28;20056;-63
2022/10/25 04:31:51;;;;;;;19.48;5.97;;;;;;;;;;5079599;28;20063;-62
2022/10/25 04:34:17;;;;;;;27.08;5.95;;;;;;;;;;5078995;28;20602;-62
2022/10/25 04:36:43;;;;;;;19.77;7.20;;;;;;;;;;5079888;28;20057;-63
2022/10/25 04:39:10;;;;;;;19.17;6.57;;;;;;;;;;5079847;28;20072;-63
2022/10/25 04:41:36;;;;;;;15.63;5.60;;;;;;;;;;5077515;28;20681;-62
2022/10/25 04:44:03;;;;;;;19.98;6.20;;;;;;;;;;5075243;28;20052;-62
2022/10/25 04:46:29;;;;;;;15.93;5.38;;;;;;;;;;5077981;28;20048;-62
2022/10/25 04:48:56;;;;;;;16.92;4.90;;;;;;;;;;5082452;28;20052;-63
2022/10/25 04:51:22;;;;;;;13.85;5.78;;;;;;;;;;5077323;28;20507;-62
2022/10/25 04:53:51;;;;;;;18.50;5.20;;;;;;;;;;5082736;28;20047;-62
2022/10/25 04:56:18;;;;;;;15.32;5.20;;;;;;;;;;5080056;28;20056;-62
2022/10/25 04:58:44;;;;;;;14.07;4.43;;;;;;;;;;5079409;28;20526;-63
2022/10/25 05:01:11;;;;;;;20.73;5.90;;;;;;;;;;5080185;28;20481;-63
2022/10/25 05:03:38;;;;;;;15.65;5.18;;;;;;;;;;5078678;28;20052;-62
2022/10/25 05:06:06;;;;;;;8.63;4.72;;;;;;;;;;5080831;28;20057;-63
2022/10/25 05:08:32;;;;;;;18.35;5.35;;;;;;;;;;5079118;28;20048;-63
2022/10/25 05:10:58;;;;;;;11.68;4.57;;;;;;;;;;5078490;28;20529;-62
2022/10/25 05:13:25;;;;;;;18.83;4.90;;;;;;;;;;5076773;28;20055;-62
2022/10/25 05:15:54;;;;;;;13.18;4.85;;;;;;;;;;5080102;28;20530;-63
2022/10/25 05:18:20;;;;;;;12.80;4.80;;;;;;;;;;5078130;28;20056;-63
2022/10/25 05:21:00;;;;;;;14.48;4.85;;;;;;;;;;5080890;28;20703;-64
2022/10/25 05:23:27;;;;;;;13.80;5.57;;;;;;;;;;5076516;28;20049;-62
2022/10/25 05:26:03;;;;;;;12.65;6.35;;;;;;;;;;5081650;28;20059;-62
2022/10/25 05:28:29;;;;;;;14.18;6.00;;;;;;;;;;5076881;28;20045;-63
2022/10/25 05:30:56;;;;;;;11.27;5.60;;;;;;;;;;5080427;28;20052;-63
2022/10/25 05:33:23;;;;;;;12.43;6.15;;;;;;;;;;5081724;28;20082;-63
2022/10/25 05:35:49;;;;;;;18.42;5.90;;;;;;;;;;5081627;28;20530;-63
2022/10/25 05:38:15;;;;;;;14.63;5.57;;;;;;;;;;5079092;28;20055;-62
2022/10/25 05:40:42;;;;;;;17.70;6.13;;;;;;;;;;5081913;28;20573;-62
2022/10/25 05:43:08;;;;;;;19.83;6.60;;;;;;;;;;5083560;28;20063;-63
2022/10/25 05:45:34;;;;;;;13.35;5.45;;;;;;;;;;5079643;28;20044;-62
2022/10/25 05:48:01;;;;;;;17.00;6.43;;;;;;;;;;5080031;28;20048;-62
2022/10/25 05:50:29;;;;;;;11.68;5.30;;;;;;;;;;5079317;28;20051;-62
2022/10/25 05:52:55;;;;;;;15.38;5.88;;;;;;;;;;5083078;28;20060;-62
2022/10/25 05:55:21;;;;;;;15.65;4.93;;;;;;;;;;5082585;28;20045;-62
2022/10/25 05:57:51;;;;;;;15.07;5.28;;;;;;;;;;5084727;28;20063;-62
2022/10/25 06:00:17;;;;;;;14.02;5.57;;;;;;;;;;5081921;28;20110;-62
2022/10/25 06:02:43;;;;;;;13.55;5.07;;;;;;;;;;5083916;28;20044;-63
2022/10/25 06:05:10;;;;;;;11.00;6.53;;;;;;;;;;5080856;28;20539;-62
2022/10/25 06:07:37;;;;;;;15.15;4.95;;;;;;;;;;5083165;28;20074;-62
2022/10/25 06:10:03;;;;;;;9.57;5.10;;;;;;;;;;5083577;28;20107;-63
2022/10/25 06:12:35;;;;;;;10.52;5.55;;;;;;;;;;5082358;28;20178;-62
2022/10/25 06:15:02;;;;;;;13.52;6.38;;;;;;;;;;5083170;28;20495;-62
2022/10/25 06:17:28;;;;;;;13.88;5.20;;;;;;;;;;5086637;28;20055;-63
2022/10/25 06:19:54;;;;;;;15.25;6.07;;;;;;;;;;5081212;28;20499;-62
2022/10/25 06:22:21;;;;;;;13.88;5.53;;;;;;;;;;5079827;28;20056;-62
2022/10/25 06:24:47;;;;;;;16.73;7.10;;;;;;;;;;5083312;28;20056;-62
2022/10/25 06:27:13;;;;;;;15.95;6.22;;;;;;;;;;5080620;28;20220;-63
2022/10/25 06:29:39;;;;;;;11.80;5.93;;;;;;;;;;5083639;28;20433;-62
2022/10/25 06:32:06;;;;;;;12.90;5.72;;;;;;;;;;5082478;28;20071;-62
2022/10/25 06:34:32;;;;;;;16.20;6.25;;;;;;;;;;5081707;28;20043;-62
2022/10/25 06:36:58;;;;;;;24.05;7.00;;;;;;;;;;5082873;28;20052;-63
2022/10/25 06:39:24;;;;;;;16.00;5.45;;;;;;;;;;5091413;28;20503;-63
2022/10/25 06:41:51;;;;;;;14.45;6.22;;;;;;;;;;5081486;28;20517;-62
2022/10/25 06:44:17;;;;;;;13.00;5.18;;;;;;;;;;5081062;28;20052;-63
2022/10/25 06:46:43;;;;;;;20.08;7.35;;;;;;;;;;5076854;28;20490;-62
2022/10/25 06:49:30;;;;;;;13.25;5.93;;;;;;;;;;5078717;28;20160;-62
2022/10/25 06:51:56;;;;;;;11.57;5.45;;;;;;;;;;5081172;28;20661;-63
2022/10/25 06:54:24;;;;;;;13.27;5.47;;;;;;;;;;5081404;28;20366;-62
2022/10/25 06:56:50;;;;;;;13.18;5.88;;;;;;;;;;5079671;28;20091;-64
2022/10/25 06:59:18;;;;;;;18.65;6.50;;;;;;;;;;5082328;28;20060;-63
2022/10/25 07:01:44;;;;;;;12.05;5.38;;;;;;;;;;5080532;28;20056;-62
2022/10/25 07:04:11;;;;;;;12.32;5.78;;;;;;;;;;5082839;28;20131;-63
2022/10/25 07:06:37;;;;;;;11.68;5.90;;;;;;;;;;5082547;28;20060;-64
2022/10/25 07:09:05;;;;;;;15.60;5.65;;;;;;;;;;5081763;28;20584;-63
2022/10/25 07:11:31;;;;;;;12.93;6.28;;;;;;;;;;5082182;28;20083;-64
2022/10/25 07:13:58;;;;;;;15.13;5.88;;;;;;;;;;5082399;28;20566;-62
2022/10/25 07:16:25;;;;;;;11.82;5.88;;;;;;;;;;5081056;28;20540;-63
2022/10/25 07:18:56;;;;;;;11.52;5.47;;;;;;;;;;5080787;28;20550;-63
2022/10/25 07:21:22;;;;;;;12.27;5.03;;;;;;;;;;5083139;28;20052;-63
2022/10/25 07:23:49;;;;;;;12.90;5.78;;;;;;;;;;5083004;28;20586;-62
2022/10/25 07:26:17;;;;;;;13.60;5.50;;;;;;;;;;5080934;28;20076;-62
2022/10/25 07:28:44;;;;;;;13.27;5.80;;;;;;;;;;5072695;28;20581;-62
2022/10/25 07:31:12;;;;;;;10.63;5.53;;;;;;;;;;5081752;28;20549;-62
2022/10/25 07:33:38;;;;;;;12.20;5.05;;;;;;;;;;5088664;28;20403;-62
2022/10/25 07:36:04;;;;;;;14.98;4.80;;;;;;;;;;5084005;28;20566;-63
2022/10/25 07:38:37;;;;;;;10.38;5.88;;;;;;;;;;5079293;28;20496;-61
2022/10/25 07:41:03;;;;;;;17.55;7.28;;;;;;;;;;5080845;28;20059;-63
2022/10/25 07:43:29;;;;;;;12.70;5.43;;;;;;;;;;5080549;28;20596;-62
2022/10/25 07:45:56;;;;;;;10.75;5.30;;;;;;;;;;5080423;28;20051;-62
2022/10/25 07:48:23;;;;;;;13.50;5.65;;;;;;;;;;5080178;28;20056;-62
2022/10/25 07:50:49;;;;;;;12.50;6.60;;;;;;;;;;5084280;28;20584;-67
2022/10/25 07:53:15;;;;;;;9.75;5.72;;;;;;;;;;5087080;28;20136;-66
2022/10/25 07:55:42;;;;;;;13.07;5.55;;;;;;;;;;5080849;28;20053;-61
2022/10/25 07:58:09;;;;;;;11.52;5.95;;;;;;;;;;5081048;28;20044;-61
2022/10/25 08:00:36;;;;;;;19.70;6.13;;;;;;;;;;5081695;28;20052;-61
2022/10/25 08:03:02;;;;;;;17.90;6.25;;;;;;;;;;5080790;28;20484;-62
2022/10/25 08:05:29;;;;;;;10.68;6.00;;;;;;;;;;5081130;28;20044;-61
2022/10/25 08:07:55;;;;;;;10.60;5.72;;;;;;;;;;5081001;28;20522;-61
2022/10/25 08:10:22;;;;;;;20.05;6.07;;;;;;;;;;5079469;28;20053;-62
2022/10/25 08:12:49;;;;;;;10.65;6.68;;;;;;;;;;5081799;28;20560;-62
2022/10/25 08:15:16;;;;;;;14.95;6.88;;;;;;;;;;5080304;28;20370;-63
2022/10/25 08:17:42;;;;;;;15.60;6.53;;;;;;;;;;5093674;28;20044;-61
2022/10/25 08:20:09;;;;;;;12.05;6.55;;;;;;;;;;5090240;27;20056;-62
2022/10/25 08:22:35;;;;;;;13.00;5.68;;;;;;;;;;5079914;28;20068;-61
2022/10/25 08:25:03;;;;;;;12.82;6.80;;;;;;;;;;5079303;28;20576;-61
2022/10/25 08:27:30;;;;;;;11.70;5.95;;;;;;;;;;5081060;28;20106;-60
2022/10/25 08:29:57;;;;;;;16.08;6.43;;;;;;;;;;5079637;28;20110;-62
2022/10/25 08:32:23;;;;;;;10.93;5.55;;;;;;;;;;5080646;28;20059;-62
2022/10/25 08:34:50;;;;;;;10.30;6.22;;;;;;;;;;5080317;28;20110;-61
2022/10/25 08:37:16;;;;;;;16.20;6.70;;;;;;;;;;5096059;28;20571;-62
2022/10/25 08:39:43;;;;;;;17.48;6.70;;;;;;;;;;5088645;28;20053;-61
2022/10/25 08:42:14;;;;;;;15.32;6.10;;;;;;;;;;5080086;28;20048;-63
2022/10/25 08:45:00;;;;;;;14.05;6.32;;;;;;;;;;5081289;28;20060;-62
2022/10/25 08:47:30;;;;;;;8.98;6.20;;;;;;;;;;5078475;28;20106;-62
2022/10/25 08:50:11;;;;;;;12.85;6.63;;;;;;;;;;5081133;28;20055;-62
2022/10/25 08:52:57;;;;;;;13.98;6.13;;;;;;;;;;5081122;28;20514;-61
2022/10/25 08:55:34;;;;;;;9.63;4.97;;;;;;;;;;5075925;28;20048;-63
2022/10/25 08:58:19;;;;;;;9.63;6.00;;;;;;;;;;5079724;28;20057;-62
2022/10/25 09:00:47;;;;;;;16.75;6.15;;;;;;;;;;5063814;28;20045;-62
2022/10/25 09:03:15;;;;;;;9.25;5.82;;;;;;;;;;5079657;28;20498;-62
2022/10/25 09:05:51;;;;;;;11.48;5.68;;;;;;;;;;5080572;28;20514;-62
2022/10/25 09:08:30;;;;;;;10.30;5.13;;;;;;;;;;5082645;28;20413;-61
2022/10/25 09:11:15;;;;;;;9.68;5.22;;;;;;;;;;5084184;28;20071;-62
2022/10/25 09:13:46;;;;;;;15.25;5.70;;;;;;;;;;5079017;28;20048;-62
2022/10/25 09:16:27;;;;;;;16.45;5.53;;;;;;;;;;5085282;28;20059;-63
2022/10/25 09:18:55;;;;;;;8.20;5.45;;;;;;;;;;5084546;28;20057;-62
2022/10/25 09:21:28;;;;;;;11.52;5.03;;;;;;;;;;5084122;28;20060;-63
2022/10/25 09:24:01;;;;;;;10.07;5.32;;;;;;;;;;5084625;28;20169;-62
2022/10/25 09:26:41;;;;;;;12.50;5.60;;;;;;;;;;5083900;28;20041;-63
2022/10/25 09:29:11;;;;;;;10.05;5.05;;;;;;;;;;5090288;28;20052;-62
2022/10/25 09:31:40;;;;;;;6.80;5.35;;;;;;;;;;5082933;28;20045;-61
2022/10/25 09:34:07;;;;;;;15.98;6.18;;;;;;;;;;5084704;28;20164;-62
2022/10/25 09:36:41;;;;;;;8.98;4.80;;;;;;;;;;5086556;28;20051;-62
2022/10/25 09:39:15;;;;;;;10.48;5.80;;;;;;;;;;5082478;28;20052;-61
2022/10/25 09:41:43;;;;;;;11.95;7.18;;;;;;;;;;5083631;28;20049;-62
2022/10/25 09:44:13;;;;;;;15.75;6.03;;;;;;;;;;5084673;28;20049;-69
2022/10/25 09:46:43;;;;;;;11.48;5.38;;;;;;;;;;5079027;28;20053;-63
2022/10/25 09:49:18;;;;;;;11.90;5.90;;;;;;;;;;5082111;28;20075;-63
2022/10/25 09:51:56;;;;;;;8.82;4.90;;;;;;;;;;5087255;28;20528;-62
2022/10/25 09:54:26;;;;;;;6.93;4.55;;;;;;;;;;5088044;28;20044;-61
2022/10/25 09:56:53;;;;;;;11.32;5.03;;;;;;;;;;5079042;28;20059;-62
2022/10/25 09:59:19;;;;;;;12.93;5.32;;;;;;;;;;5081489;28;20361;-62
2022/10/25 10:01:45;;;;;;;10.88;6.18;;;;;;;;;;5083916;28;20045;-62
2022/10/25 10:04:23;;;;;;;10.13;5.45;;;;;;;;;;5080261;28;20064;-63
2022/10/25 10:06:51;;;;;;;14.45;5.55;;;;;;;;;;5064078;28;20049;-62
2022/10/25 10:09:18;;;;;;;7.05;5.57;;;;;;;;;;5079513;28;20059;-61
2022/10/25 10:11:46;;;;;;;18.25;5.70;;;;;;;;;;5084640;28;20095;-61
2022/10/25 10:14:31;;;;;;;11.68;5.97;;;;;;;;;;5082583;28;20063;-62
2022/10/25 10:16:58;;;;;;;9.40;5.90;;;;;;;;;;5084278;28;20526;-62
2022/10/25 10:19:28;;;;;;;9.73;4.88;;;;;;;;;;5081850;28;20419;-63
2022/10/25 10:22:06;;;;;;;8.50;4.88;;;;;;;;;;5063238;28;20397;-62
2022/10/25 10:24:34;;;;;;;9.77;5.18;;;;;;;;;;5063184;28;20063;-61
2022/10/25 10:27:01;;;;;;;7.07;5.00;;;;;;;;;;5072604;28;20048;-61
2022/10/25 10:29:30;;;;;;;12.20;5.63;;;;;;;;;;5104006;28;20051;-62
2022/10/25 10:32:00;;;;;;;9.10;4.57;;;;;;;;;;5104744;28;20514;-62
2022/10/25 10:34:29;;;;;;;11.40;4.72;;;;;;;;;;5092968;28;20160;-61
2022/10/25 10:37:03;;;;;;;11.93;4.85;;;;;;;;;;5079839;28;20159;-62
2022/10/25 10:39:30;;;;;;;11.18;4.93;;;;;;;;;;5085114;28;20052;-63
2022/10/25 10:42:04;;;;;;;10.48;4.78;;;;;;;;;;5082640;28;20075;-62
2022/10/25 10:44:33;;;;;;;9.27;5.05;;;;;;;;;;5083331;28;20053;-61
2022/10/25 10:47:01;;;;;;;7.95;4.43;;;;;;;;;;5084021;28;20367;-62
2022/10/25 10:49:33;;;;;;;7.93;5.03;;;;;;;;;;5082674;28;20079;-61
2022/10/25 10:52:01;;;;;;;9.07;4.80;;;;;;;;;;5082750;28;20049;-62
2022/10/25 10:54:30;;;;;;;9.65;4.80;;;;;;;;;;5089260;28;20568;-63
2022/10/25 10:56:56;;;;;;;13.43;5.15;;;;;;;;;;5085519;28;20055;-63
2022/10/25 10:59:38;;;;;;;9.95;4.53;;;;;;;;;;5082820;28;20507;-62
2022/10/25 11:02:15;;;;;;;8.60;4.53;;;;;;;;;;5081953;28;20075;-61
2022/10/25 11:05:00;;;;;;;13.55;5.57;;;;;;;;;;5089992;28;20059;-61
2022/10/25 11:07:33;;;;;;;11.02;5.40;;;;;;;;;;5085391;28;20110;-62
2022/10/25 11:10:32;;;;;;;9.55;5.32;;;;;;;;;;5080720;28;20048;-61
2022/10/25 11:13:04;;;;;;;11.00;5.82;;;;;;;;;;5047636;28;20071;-62
2022/10/25 11:15:40;;;;;;;14.77;6.32;;;;;;;;;;5081172;28;20060;-62
2022/10/25 11:18:08;;;;;;;10.57;5.68;;;;;;;;;;5098505;27;20051;-61
2022/10/25 11:20:37;;;;;;;7.43;5.30;;;;;;;;;;5097076;27;20053;-61
2022/10/25 11:23:07;;;;;;;15.43;6.63;;;;;;;;;;5080194;28;20063;-61
2022/10/25 11:25:53;;;;;;;10.82;5.90;;;;;;;;;;5077165;28;20049;-61
2022/10/25 11:28:25;;;;;;;10.80;5.88;;;;;;;;;;5077488;28;20540;-61
2022/10/25 11:30:52;;;;;;;12.77;6.30;;;;;;;;;;5093367;28;20083;-61
2022/10/25 11:33:21;;;;;;;10.02;5.13;;;;;;;;;;5087673;28;20118;-60
2022/10/25 11:36:10;;;;;;;8.70;5.35;;;;;;;;;;5080226;28;20541;-62
2022/10/25 11:38:37;;;;;;;13.55;5.50;;;;;;;;;;5086634;28;20053;-61
2022/10/25 11:41:22;;;;;;;9.07;4.38;;;;;;;;;;5078554;28;20048;-62
2022/10/25 11:43:52;;;;;;;8.82;4.75;;;;;;;;;;5078019;28;20136;-62
2022/10/25 11:46:27;;;;;;;18.42;4.78;;;;;;;;;;5072984;28;20086;-62
2022/10/25 11:49:09;;;;;;;7.07;4.00;;;;;;;;;;5081848;28;20052;-61
2022/10/25 11:51:45;;;;;;;14.68;5.13;;;;;;;;;;5080511;28;20431;-61
2022/10/25 11:54:21;;;;;;;8.05;4.63;;;;;;;;;;5075698;28;20068;-61
2022/10/25 11:56:56;;;;;;;12.07;4.18;;;;;;;;;;5078161;28;20079;-61
2022/10/25 11:59:22;;;;;;;11.00;5.35;;;;;;;;;;5080303;28;20044;-61
2022/10/25 12:02:02;;;;;;;11.07;4.13;;;;;;;;;;5081661;28;20056;-61
2022/10/25 12:04:38;;;;;;;9.77;4.40;;;;;;;;;;5084708;28;20048;-62
2022/10/25 12:07:23;;;;;;;7.95;3.92;;;;;;;;;;5078027;28;20515;-60
2022/10/25 12:09:52;;;;;;;6.82;3.33;;;;;;;;;;5072188;28;20052;-61
2022/10/25 12:12:24;;;;;;;5.95;3.25;;;;;;;;;;5080198;28;20478;-62
2022/10/25 12:14:53;;;;;;;11.13;3.55;;;;;;;;;;5086911;28;20614;-61
2022/10/25 12:17:24;;;;;;;7.70;3.63;;;;;;;;;;5081198;28;20048;-61
2022/10/25 12:19:53;;;;;;;6.50;3.33;;;;;;;;;;5081360;28;20060;-62
2022/10/25 12:22:22;;;;;;;11.20;3.38;;;;;;;;;;5080952;28;20052;-61
2022/10/25 12:24:50;;;;;;;4.15;2.60;;;;;;;;;;5080702;28;20045;-60
2022/10/25 12:27:18;;;;;;;8.60;3.25;;;;;;;;;;5073220;28;20052;-61
2022/10/25 12:29:46;;;;;;;11.52;3.28;;;;;;;;;;5092312;28;20522;-61
2022/10/25 12:32:15;;;;;;;6.63;3.22;;;;;;;;;;5068066;28;20562;-61
2022/10/25 12:34:44;;;;;;;7.85;3.78;;;;;;;;;;5081000;28;20056;-61
2022/10/25 12:37:17;;;;;;;14.05;5.03;;;;;;;;;;5077253;28;20049;-61
2022/10/25 12:39:45;;;;;;;9.43;3.63;;;;;;;;;;5084250;27;20049;-63
2022/10/25 12:42:23;;;;;;;7.97;3.35;;;;;;;;;;5078730;28;20556;-60
2022/10/25 12:45:09;;;;;;;6.05;3.42;;;;;;;;;;5079845;28;20529;-61
2022/10/25 12:47:38;;;;;;;7.03;3.65;;;;;;;;;;5080147;28;20055;-61
2022/10/25 12:50:21;;;;;;;7.80;4.00;;;;;;;;;;5073518;28;20056;-61
2022/10/25 12:53:19;;;;;;;9.98;4.30;;;;;;;;;;5064405;28;20111;-62
2022/10/25 12:56:09;;;;;;;8.82;5.10;;;;;;;;;;5082491;28;20051;-62
2022/10/25 12:58:48;;;;;;;10.13;4.07;;;;;;;;;;5059390;28;20056;-61
2022/10/25 13:01:24;;;;;;;7.30;4.05;;;;;;;;;;5081627;28;20052;-62
2022/10/25 13:03:59;;;;;;;7.68;3.53;;;;;;;;;;5080103;28;20067;-63
2022/10/25 13:06:28;;;;;;;9.20;3.45;;;;;;;;;;5080367;28;20041;-62
2022/10/25 13:08:59;;;;;;;7.95;2.85;;;;;;;;;;5080934;28;20503;-62
2022/10/25 13:11:37;;;;;;;7.07;2.97;;;;;;;;;;5097662;28;20059;-62
2022/10/25 13:14:03;;;;;;;13.55;2.60;;;;;;;;;;5078299;28;20506;-62
2022/10/25 13:16:31;;;;;;;7.75;2.83;;;;;;;;;;5083079;27;20052;-62
2022/10/25 13:19:16;;;;;;;11.15;3.15;;;;;;;;;;5084586;28;20059;-61
2022/10/25 13:22:08;;;;;;;7.28;2.88;;;;;;;;;;5091244;28;20620;-62
2022/10/25 13:24:34;;;;;;;12.23;3.45;;;;;;;;;;5086775;27;20053;-62
2022/10/25 13:27:13;;;;;;;12.50;3.72;;;;;;;;;;5082043;28;20064;-62
2022/10/25 13:29:45;;;;;;;7.70;3.40;;;;;;;;;;5081073;28;20049;-60
2022/10/25 13:32:19;;;;;;;9.43;3.13;;;;;;;;;;5085199;28;20048;-61
2022/10/25 13:34:45;;;;;;;8.88;3.72;;;;;;;;;;5083743;28;20049;-62
2022/10/25 13:37:30;;;;;;;10.75;3.92;;;;;;;;;;5074999;28;20094;-62
2022/10/25 13:39:57;;;;;;;7.40;3.63;;;;;;;;;;5082442;28;20052;-62
2022/10/25 13:42:24;;;;;;;10.70;3.78;;;;;;;;;;5087739;28;20071;-61
2022/10/25 13:44:54;;;;;;;7.07;3.25;;;;;;;;;;5094205;27;20048;-62
2022/10/25 13:47:40;;;;;;;9.68;3.85;;;;;;;;;;5079235;28;20045;-62
2022/10/25 13:50:14;;;;;;;12.32;3.72;;;;;;;;;;5084726;28;20053;-63
2022/10/25 13:52:41;;;;;;;;;;;;;;;;;;5073480;28;20165;-62
2022/10/25 13:55:13;;;;;;;7.35;4.40;;;;;;;;;;5080285;28;46885;-62
2022/10/25 13:57:47;;;;;;;8.48;4.85;;;;;;;;;;5084444;28;20044;-62
2022/10/25 14:00:14;;;;;;;12.80;5.37;;;;;;;;;;5084532;28;20095;-62
2022/10/25 14:02:59;;;;;;;10.27;5.22;;;;;;;;;;5083579;28;20091;-61
2022/10/25 14:05:44;;;;;;;10.98;5.22;;;;;;;;;;5082568;28;20055;-62
2022/10/25 14:08:17;;;;;;;6.60;4.93;;;;;;;;;;5084746;28;20048;-61
2022/10/25 14:10:46;;;;;;;11.07;4.70;;;;;;;;;;5083051;28;20059;-63
2022/10/25 14:13:18;;;;;;;11.75;5.60;;;;;;;;;;5082058;28;20056;-62
2022/10/25 14:15:47;;;;;;;11.95;4.85;;;;;;;;;;5084101;28;20056;-62
2022/10/25 14:18:16;;;;;;;11.98;4.00;;;;;;;;;;5062401;28;20053;-63
2022/10/25 14:20:44;;;;;;;7.68;3.88;;;;;;;;;;5068096;28;20671;-62
2022/10/25 14:23:17;;;;;;;8.75;3.33;;;;;;;;;;5103806;27;20049;-62
2022/10/25 14:25:55;;;;;;;6.97;3.72;;;;;;;;;;5074950;28;20047;-63
2022/10/25 14:28:21;;;;;;;8.02;3.38;;;;;;;;;;5082846;28;21088;-62
2022/10/25 14:30:49;;;;;;;8.65;4.57;;;;;;;;;;5081468;28;20053;-61
2022/10/25 14:33:35;;;;;;;14.85;5.70;;;;;;;;;;5082708;28;20055;-62
2022/10/25 14:36:26;;;;;;;6.28;4.20;;;;;;;;;;5076602;28;20057;-62
2022/10/25 14:38:54;;;;;;;9.10;4.93;;;;;;;;;;5083218;28;20044;-62
2022/10/25 14:41:22;;;;;;;9.55;5.38;;;;;;;;;;5082537;28;20052;-63
2022/10/25 14:43:48;;;;;;;11.63;4.85;;;;;;;;;;5080191;28;20503;-62
2022/10/25 14:46:16;;;;;;;6.70;3.60;;;;;;;;;;5080516;28;20045;-61
2022/10/25 14:48:45;;;;;;;12.38;4.93;;;;;;;;;;5082600;28;20099;-61
2022/10/25 14:51:20;;;;;;;11.98;4.25;;;;;;;;;;5082517;28;20049;-62